Time;durP1;ratioP1;P1;durP2;ratioP2;P2;SDS_P1;SDS_P2;PMS_P1;PMS_P2;Temp;Humidity;BMP_temperature;BMP_pressure;BME280_temperature;BME280_humidity;BME280_pressure;Samples;Min_cycle;Max_cycle;Signal;HPM_P1;HPM_P2
2023/07/02 00:01:30;;;;;;;5.50;5.10;;;17.90;99.90;;;;;;5005416;28;20625;-66
2023/07/02 00:03:56;;;;;;;5.10;4.10;;;17.90;99.90;;;;;;5008841;28;20216;-66
2023/07/02 00:06:21;;;;;;;4.90;4.50;;;17.90;99.90;;;;;;5007468;28;20264;-67
2023/07/02 00:08:47;;;;;;;4.60;4.20;;;17.80;99.90;;;;;;5010942;28;20579;-67
2023/07/02 00:11:15;;;;;;;4.57;4.13;;;17.70;99.90;;;;;;5009370;28;20191;-67
2023/07/02 00:13:40;;;;;;;4.03;3.73;;;17.70;99.90;;;;;;5001994;28;20197;-66
2023/07/02 00:16:06;;;;;;;4.77;4.47;;;17.60;99.90;;;;;;5008486;28;20445;-66
2023/07/02 00:18:34;;;;;;;5.17;4.77;;;17.50;99.90;;;;;;5004267;28;20198;-67
2023/07/02 00:21:03;;;;;;;7.60;4.20;;;17.50;99.90;;;;;;5011657;28;20186;-67
2023/07/02 00:23:29;;;;;;;5.73;4.90;;;17.40;99.90;;;;;;5007832;28;20978;-67
2023/07/02 00:25:56;;;;;;;4.53;4.13;;;17.40;99.90;;;;;;5007228;28;20449;-67
2023/07/02 00:28:22;;;;;;;5.77;4.30;;;17.30;99.90;;;;;;5007588;28;20457;-67
2023/07/02 00:30:47;;;;;;;4.53;4.23;;;17.30;99.90;;;;;;5006546;28;20441;-67
2023/07/02 00:33:13;;;;;;;4.73;4.30;;;17.20;99.90;;;;;;5008918;28;20215;-68
2023/07/02 00:35:38;;;;;;;4.40;4.00;;;17.20;99.90;;;;;;5007400;28;20241;-67
2023/07/02 00:38:04;;;;;;;4.87;4.37;;;17.20;99.90;;;;;;5006430;28;20248;-67
2023/07/02 00:40:29;;;;;;;4.00;3.70;;;17.20;99.90;;;;;;5004535;28;20215;-66
2023/07/02 00:42:56;;;;;;;4.60;4.30;;;17.20;99.90;;;;;;5006640;28;20199;-67
2023/07/02 00:45:22;;;;;;;4.83;4.53;;;17.20;99.90;;;;;;5006606;28;20272;-67
2023/07/02 00:47:48;;;;;;;4.07;3.70;;;17.30;99.90;;;;;;4993011;28;20462;-67
2023/07/02 00:50:13;;;;;;;4.70;4.30;;;17.30;99.90;;;;;;5009396;28;20267;-67
2023/07/02 00:52:39;;;;;;;4.80;4.40;;;17.40;99.90;;;;;;4999929;28;20494;-67
2023/07/02 00:55:05;;;;;;;4.60;4.30;;;17.50;99.90;;;;;;5006796;28;20277;-67
2023/07/02 00:57:31;;;;;;;3.90;3.60;;;17.50;99.90;;;;;;5008120;28;20671;-66
2023/07/02 01:00:00;;;;;;;4.33;4.03;;;17.40;99.90;;;;;;5010451;28;20484;-66
2023/07/02 01:02:25;;;;;;;4.63;3.77;;;17.40;99.90;;;;;;5010947;28;20218;-67
2023/07/02 01:04:57;;;;;;;4.97;4.30;;;17.30;99.90;;;;;;5005404;28;21017;-67
2023/07/02 01:07:23;;;;;;;4.43;4.13;;;17.30;99.90;;;;;;5001716;28;20441;-67
2023/07/02 01:09:48;;;;;;;4.70;4.33;;;17.40;99.90;;;;;;5005656;28;20438;-67
2023/07/02 01:12:17;;;;;;;4.13;3.73;;;17.40;99.90;;;;;;5009643;28;20550;-68
2023/07/02 01:14:47;;;;;;;4.60;4.30;;;17.50;99.90;;;;;;5006801;28;20195;-67
2023/07/02 01:17:19;;;;;;;3.87;3.57;;;17.50;99.90;;;;;;5003093;28;20489;-66
2023/07/02 01:19:54;;;;;;;4.10;3.80;;;17.50;99.90;;;;;;5006759;28;20485;-68
2023/07/02 01:22:22;;;;;;;4.70;4.30;;;17.50;99.90;;;;;;5003889;28;20461;-67
2023/07/02 01:24:48;;;;;;;4.53;4.20;;;17.40;99.90;;;;;;5009893;28;20457;-68
2023/07/02 01:27:15;;;;;;;4.10;3.90;;;17.30;99.90;;;;;;5007640;28;20429;-68
2023/07/02 01:29:41;;;;;;;5.63;4.60;;;17.20;99.90;;;;;;5004046;28;20438;-67
2023/07/02 01:32:10;;;;;;;4.63;4.23;;;17.20;99.90;;;;;;5005413;28;20436;-67
2023/07/02 01:34:36;;;;;;;4.83;3.80;;;17.20;99.90;;;;;;5005569;28;20473;-67
2023/07/02 01:37:02;;;;;;;5.00;4.60;;;17.10;99.90;;;;;;5001460;28;20426;-67
2023/07/02 01:39:28;;;;;;;5.30;4.90;;;17.10;99.90;;;;;;5003043;28;20680;-67
2023/07/02 01:42:10;;;;;;;5.63;4.60;;;17.00;99.90;;;;;;5001973;28;20524;-68
2023/07/02 01:44:36;;;;;;;5.17;4.00;;;17.00;99.90;;;;;;5001575;28;20260;-67
2023/07/02 01:47:02;;;;;;;4.27;3.97;;;17.00;99.90;;;;;;5010297;28;20852;-67
2023/07/02 01:49:27;;;;;;;4.50;4.17;;;16.90;99.90;;;;;;5008375;28;20473;-66
2023/07/02 01:51:54;;;;;;;5.10;4.70;;;16.90;99.90;;;;;;5013513;28;20240;-67
2023/07/02 01:54:21;;;;;;;4.60;4.20;;;16.80;99.90;;;;;;5013411;28;20199;-68
2023/07/02 01:56:47;;;;;;;4.40;4.00;;;16.70;99.90;;;;;;5013463;28;20434;-67
2023/07/02 01:59:13;;;;;;;4.70;4.30;;;16.70;99.90;;;;;;5005670;28;20969;-68
2023/07/02 02:01:40;;;;;;;4.53;4.13;;;16.70;99.90;;;;;;5007149;28;20564;-67
2023/07/02 02:04:09;;;;;;;5.97;4.07;;;16.60;99.90;;;;;;5020362;23;20227;-68
2023/07/02 02:06:36;;;;;;;4.30;3.93;;;16.60;99.90;;;;;;4998880;28;20430;-68
2023/07/02 02:09:05;;;;;;;4.23;3.93;;;16.70;99.90;;;;;;4984629;28;20481;-68
2023/07/02 02:11:32;;;;;;;4.43;4.13;;;16.70;99.90;;;;;;4994537;28;20446;-69
2023/07/02 02:14:01;;;;;;;5.20;4.10;;;16.80;99.90;;;;;;4990217;28;20461;-68
2023/07/02 02:16:26;;;;;;;4.60;4.00;;;16.80;99.90;;;;;;4984949;28;20471;-68
2023/07/02 02:18:52;;;;;;;4.10;3.80;;;16.90;99.90;;;;;;4976092;28;20529;-68
2023/07/02 02:21:18;;;;;;;5.03;4.47;;;16.90;99.90;;;;;;4987240;28;20187;-68
2023/07/02 02:23:44;;;;;;;4.17;3.77;;;16.90;99.90;;;;;;4966396;28;20200;-68
2023/07/02 02:26:10;;;;;;;4.30;3.90;;;16.90;99.90;;;;;;4982623;28;20457;-68
2023/07/02 02:28:36;;;;;;;4.53;4.13;;;17.00;99.90;;;;;;4972542;28;20208;-68
2023/07/02 02:31:02;;;;;;;4.00;3.70;;;17.10;99.90;;;;;;4979573;28;20187;-68
2023/07/02 02:33:28;;;;;;;8.30;4.27;;;17.10;99.90;;;;;;4974953;28;20459;-68
2023/07/02 02:35:53;;;;;;;4.43;4.07;;;17.20;99.90;;;;;;4973752;28;20476;-69
2023/07/02 02:38:19;;;;;;;4.00;3.73;;;17.30;99.90;;;;;;4973594;28;20184;-68
2023/07/02 02:40:44;;;;;;;4.93;3.77;;;17.20;99.90;;;;;;4969328;28;20181;-68
2023/07/02 02:43:10;;;;;;;4.47;3.60;;;17.20;99.90;;;;;;4979520;28;20184;-69
2023/07/02 02:45:35;;;;;;;5.13;4.70;;;17.30;99.90;;;;;;4976564;28;20188;-68
2023/07/02 02:48:01;;;;;;;4.03;3.73;;;17.40;99.90;;;;;;4973400;28;20223;-68
2023/07/02 02:50:26;;;;;;;4.37;3.97;;;17.40;99.90;;;;;;4972961;28;20188;-69
2023/07/02 02:52:52;;;;;;;4.87;4.47;;;17.30;99.90;;;;;;4981084;28;20230;-69
2023/07/02 02:55:18;;;;;;;5.97;3.97;;;17.30;99.90;;;;;;4980611;28;20199;-68
2023/07/02 02:57:44;;;;;;;4.70;4.37;;;17.30;99.90;;;;;;4981093;28;20183;-68
2023/07/02 03:00:11;;;;;;;4.73;3.60;;;17.30;99.90;;;;;;4981577;28;20196;-68
2023/07/02 03:02:37;;;;;;;4.23;3.93;;;17.40;99.90;;;;;;4985559;28;20190;-68
2023/07/02 03:05:04;;;;;;;4.67;4.27;;;17.50;99.90;;;;;;4992657;28;20553;-69
2023/07/02 03:07:29;;;;;;;3.83;3.53;;;17.40;99.90;;;;;;4969154;28;20740;-68
2023/07/02 03:09:55;;;;;;;4.57;4.00;;;17.40;99.90;;;;;;4973429;28;20436;-69
2023/07/02 03:12:21;;;;;;;4.83;3.90;;;17.50;99.90;;;;;;4973589;28;20443;-68
2023/07/02 03:14:51;;;;;;;3.93;3.63;;;17.50;99.90;;;;;;4987665;28;20195;-68
2023/07/02 03:17:17;;;;;;;4.63;4.23;;;17.40;99.90;;;;;;4981847;28;20427;-68
2023/07/02 03:19:42;;;;;;;5.00;4.50;;;17.40;99.90;;;;;;4985044;28;20450;-68
2023/07/02 03:22:08;;;;;;;4.67;4.20;;;17.30;99.90;;;;;;4985391;28;20179;-68
2023/07/02 03:24:33;;;;;;;5.70;4.50;;;17.10;99.90;;;;;;4986965;28;20203;-69
2023/07/02 03:26:59;;;;;;;5.43;4.97;;;16.90;99.90;;;;;;4983819;28;20195;-68
2023/07/02 03:29:24;;;;;;;5.57;4.90;;;16.70;99.90;;;;;;4979519;28;20215;-69
2023/07/02 03:31:50;;;;;;;4.50;4.10;;;16.60;99.90;;;;;;4976852;28;20639;-68
2023/07/02 03:34:15;;;;;;;7.37;5.03;;;16.40;99.90;;;;;;4976911;28;20204;-68
2023/07/02 03:36:41;;;;;;;5.73;4.77;;;16.30;99.90;;;;;;4984513;28;20349;-68
2023/07/02 03:39:06;;;;;;;7.73;4.90;;;16.20;99.90;;;;;;4977876;28;20255;-69
2023/07/02 03:41:32;;;;;;;5.17;4.70;;;16.30;99.90;;;;;;4980768;28;20234;-69
2023/07/02 03:43:57;;;;;;;6.80;4.90;;;16.30;99.90;;;;;;4973490;28;20283;-68
2023/07/02 03:46:23;;;;;;;6.50;5.40;;;16.20;99.90;;;;;;4972390;28;20211;-68
2023/07/02 03:48:48;;;;;;;5.10;4.60;;;16.10;99.90;;;;;;4970773;28;20342;-69
2023/07/02 03:51:14;;;;;;;4.70;4.27;;;16.10;99.90;;;;;;4972996;28;20267;-68
2023/07/02 03:53:43;;;;;;;7.13;5.77;;;16.00;99.90;;;;;;4972011;28;20282;-69
2023/07/02 03:56:09;;;;;;;6.93;4.70;;;16.00;99.90;;;;;;4978080;28;20440;-68
2023/07/02 03:58:35;;;;;;;6.37;5.77;;;16.10;99.90;;;;;;4972824;28;20439;-69
2023/07/02 04:01:01;;;;;;;6.80;5.33;;;16.00;99.90;;;;;;4986819;28;20640;-69
2023/07/02 04:03:26;;;;;;;5.60;5.10;;;16.10;99.90;;;;;;4988629;28;21002;-69
2023/07/02 04:05:52;;;;;;;5.87;5.37;;;16.20;99.90;;;;;;4986822;28;20559;-69
2023/07/02 04:08:17;;;;;;;6.40;4.83;;;16.20;99.90;;;;;;4970938;28;20200;-68
2023/07/02 04:10:43;;;;;;;6.20;5.13;;;16.30;99.90;;;;;;4977928;28;20180;-69
2023/07/02 04:13:09;;;;;;;5.53;5.03;;;16.40;99.90;;;;;;4982495;28;20287;-68
2023/07/02 04:15:35;;;;;;;6.17;5.57;;;16.30;99.90;;;;;;4988136;28;20230;-69
2023/07/02 04:18:01;;;;;;;8.13;6.03;;;16.30;99.90;;;;;;4973007;28;20267;-68
2023/07/02 04:20:28;;;;;;;5.33;4.77;;;16.40;99.90;;;;;;4984119;28;20840;-69
2023/07/02 04:22:53;;;;;;;6.73;5.30;;;16.40;99.90;;;;;;4984843;28;20443;-68
2023/07/02 04:25:19;;;;;;;6.10;4.80;;;16.50;99.90;;;;;;4983173;28;20438;-68
2023/07/02 04:27:45;;;;;;;6.50;5.40;;;16.50;99.90;;;;;;4972588;28;20208;-69
2023/07/02 04:30:11;;;;;;;5.60;5.20;;;16.60;99.90;;;;;;4976475;28;20199;-68
2023/07/02 04:32:39;;;;;;;5.57;4.77;;;16.70;99.90;;;;;;4973870;28;20180;-68
2023/07/02 04:35:08;;;;;;;5.67;5.27;;;16.60;99.90;;;;;;4970895;28;20539;-68
2023/07/02 04:37:34;;;;;;;8.70;4.77;;;16.60;99.90;;;;;;4973699;28;21643;-69
2023/07/02 04:40:00;;;;;;;6.43;4.90;;;16.60;99.90;;;;;;4971632;28;20454;-68
2023/07/02 04:42:27;;;;;;;9.17;6.00;;;16.50;99.90;;;;;;4981060;28;20845;-69
2023/07/02 04:44:55;;;;;;;5.60;4.83;;;16.50;99.90;;;;;;4977450;28;20234;-69
2023/07/02 04:47:21;;;;;;;7.83;4.57;;;16.60;99.90;;;;;;4974443;28;20436;-68
2023/07/02 04:49:47;;;;;;;5.83;4.90;;;16.70;99.90;;;;;;4978428;28;20555;-68
2023/07/02 04:52:12;;;;;;;6.40;4.87;;;16.70;99.90;;;;;;4978334;28;20176;-68
2023/07/02 04:54:38;;;;;;;5.57;4.90;;;16.90;99.90;;;;;;4976971;28;20228;-68
2023/07/02 04:57:04;;;;;;;7.33;4.73;;;17.00;99.90;;;;;;4974133;28;20209;-68
2023/07/02 04:59:29;;;;;;;5.33;4.83;;;17.20;99.90;;;;;;4977155;28;20187;-69
2023/07/02 05:01:55;;;;;;;5.70;5.00;;;17.40;99.90;;;;;;4970656;28;20180;-68
2023/07/02 05:04:20;;;;;;;7.53;5.20;;;17.50;99.90;;;;;;4976343;28;20600;-68
2023/07/02 05:06:46;;;;;;;4.73;4.33;;;17.90;99.90;;;;;;4970180;28;20219;-69
2023/07/02 05:09:11;;;;;;;5.87;4.53;;;18.10;99.90;;;;;;4973232;28;20287;-69
2023/07/02 05:11:37;;;;;;;6.00;4.20;;;18.20;99.90;;;;;;4956820;28;20168;-69
2023/07/02 05:14:02;;;;;;;4.60;4.23;;;18.00;99.90;;;;;;4975679;28;20555;-69
2023/07/02 05:16:28;;;;;;;7.63;4.90;;;17.80;99.90;;;;;;4969877;28;20204;-68
2023/07/02 05:18:53;;;;;;;5.97;5.37;;;17.70;99.90;;;;;;4978740;28;20191;-69
2023/07/02 05:21:20;;;;;;;5.13;4.63;;;17.80;99.90;;;;;;4975432;28;20205;-69
2023/07/02 05:23:46;;;;;;;6.30;4.40;;;17.90;99.90;;;;;;4970321;28;20732;-69
2023/07/02 05:26:12;;;;;;;5.30;4.80;;;17.90;99.90;;;;;;4975043;28;20569;-69
2023/07/02 05:28:37;;;;;;;7.83;5.23;;;17.80;99.90;;;;;;4972650;28;20550;-69
2023/07/02 05:31:03;;;;;;;7.47;5.00;;;17.80;99.90;;;;;;4974696;28;20662;-69
2023/07/02 05:33:31;;;;;;;8.60;6.77;;;17.70;99.90;;;;;;4980052;28;20196;-69
2023/07/02 05:35:56;;;;;;;6.33;5.70;;;17.60;99.90;;;;;;4981389;28;20176;-69
2023/07/02 05:38:22;;;;;;;6.37;5.33;;;17.50;99.90;;;;;;4972801;28;20506;-69
2023/07/02 05:40:47;;;;;;;6.80;6.03;;;17.50;99.90;;;;;;4979409;28;20239;-69
2023/07/02 05:43:13;;;;;;;6.83;5.70;;;17.50;99.90;;;;;;4983391;28;20668;-68
2023/07/02 05:45:38;;;;;;;6.50;5.20;;;17.50;99.90;;;;;;4983549;28;20206;-69
2023/07/02 05:48:04;;;;;;;7.93;6.37;;;17.60;99.90;;;;;;4973108;28;20554;-69
2023/07/02 05:50:29;;;;;;;6.93;6.23;;;17.60;99.90;;;;;;4959098;28;20176;-69
2023/07/02 05:52:55;;;;;;;7.27;6.60;;;17.70;99.90;;;;;;4983893;28;20634;-69
2023/07/02 05:55:20;;;;;;;6.70;5.47;;;17.90;99.90;;;;;;4982514;28;20191;-69
2023/07/02 05:57:46;;;;;;;8.17;5.50;;;18.30;99.90;;;;;;4971119;28;20180;-68
2023/07/02 06:00:12;;;;;;;9.33;6.70;;;18.50;99.90;;;;;;4982856;28;20659;-69
2023/07/02 06:02:38;;;;;;;10.13;7.30;;;18.60;99.90;;;;;;4986995;28;20223;-69
2023/07/02 06:05:04;;;;;;;9.10;8.20;;;18.80;99.90;;;;;;4979269;28;20474;-68
2023/07/02 06:07:29;;;;;;;8.80;6.60;;;18.80;99.90;;;;;;4975054;28;20183;-68
2023/07/02 06:09:55;;;;;;;7.23;6.50;;;19.00;99.90;;;;;;4978783;28;20179;-68
2023/07/02 06:12:21;;;;;;;11.67;6.33;;;19.20;99.90;;;;;;4981919;28;20195;-68
2023/07/02 06:14:47;;;;;;;10.33;6.70;;;19.40;99.90;;;;;;4979403;28;20198;-68
2023/07/02 06:17:13;;;;;;;12.20;6.80;;;19.50;99.90;;;;;;4981052;28;20797;-69
2023/07/02 06:19:38;;;;;;;10.00;8.90;;;19.70;99.90;;;;;;4976070;28;20543;-68
2023/07/02 06:22:04;;;;;;;8.50;7.70;;;19.50;99.90;;;;;;4973770;28;20218;-69
2023/07/02 06:24:30;;;;;;;9.60;7.87;;;19.60;99.90;;;;;;4974691;28;20669;-68
2023/07/02 06:26:56;;;;;;;9.40;7.43;;;19.40;99.90;;;;;;4983037;28;20270;-68
2023/07/02 06:29:23;;;;;;;10.93;7.57;;;19.70;99.90;;;;;;4957376;28;20554;-69
2023/07/02 06:31:48;;;;;;;10.80;8.73;;;19.90;99.90;;;;;;4981816;28;20180;-68
2023/07/02 06:34:14;;;;;;;10.57;8.40;;;20.10;99.90;;;;;;4977147;28;20821;-69
2023/07/02 06:36:40;;;;;;;11.07;9.03;;;20.20;99.90;;;;;;4974980;28;20184;-68
2023/07/02 06:39:05;;;;;;;11.00;8.67;;;20.20;99.90;;;;;;4980660;28;20880;-68
2023/07/02 06:41:31;;;;;;;13.20;10.10;;;20.00;99.90;;;;;;4975210;28;20466;-69
2023/07/02 06:43:57;;;;;;;16.93;10.00;;;20.00;99.90;;;;;;4965771;28;20242;-68
2023/07/02 06:46:22;;;;;;;12.87;10.40;;;19.90;99.90;;;;;;4982887;28;20271;-68
2023/07/02 06:48:48;;;;;;;16.73;9.90;;;19.80;99.90;;;;;;4974378;28;20251;-68
2023/07/02 06:51:14;;;;;;;16.40;10.93;;;19.80;99.90;;;;;;4964904;28;20184;-69
2023/07/02 06:53:41;;;;;;;15.20;10.40;;;20.00;99.90;;;;;;4978792;28;20200;-68
2023/07/02 06:56:10;;;;;;;12.73;10.67;;;20.00;99.90;;;;;;4982225;28;20810;-68
2023/07/02 06:58:35;;;;;;;11.30;10.10;;;20.30;99.90;;;;;;4974206;28;20435;-67
2023/07/02 07:01:01;;;;;;;11.37;9.83;;;20.70;99.90;;;;;;4982435;28;20803;-68
2023/07/02 07:03:27;;;;;;;14.57;11.30;;;20.90;99.90;;;;;;4983906;28;20724;-68
2023/07/02 07:05:53;;;;;;;16.50;11.30;;;21.00;99.90;;;;;;4988524;28;20267;-68
2023/07/02 07:08:18;;;;;;;15.17;10.30;;;20.80;99.90;;;;;;4975449;28;20218;-67
2023/07/02 07:10:45;;;;;;;15.00;11.57;;;20.80;99.90;;;;;;4978090;28;20438;-68
2023/07/02 07:13:13;;;;;;;15.53;12.50;;;20.90;99.90;;;;;;4986657;28;20610;-68
2023/07/02 07:15:39;;;;;;;15.37;13.50;;;21.00;99.90;;;;;;4975527;28;20902;-68
2023/07/02 07:18:04;;;;;;;15.60;11.43;;;20.90;99.90;;;;;;4973908;28;20538;-69
2023/07/02 07:20:30;;;;;;;17.00;12.20;;;20.90;99.90;;;;;;4971362;28;20238;-68
2023/07/02 07:22:56;;;;;;;16.47;12.17;;;21.10;99.90;;;;;;4978619;28;20208;-68
2023/07/02 07:25:22;;;;;;;17.90;11.93;;;21.20;99.90;;;;;;4981769;28;20442;-68
2023/07/02 07:27:48;;;;;;;14.17;12.67;;;21.50;99.90;;;;;;4974754;28;20883;-68
2023/07/02 07:30:14;;;;;;;20.13;13.77;;;21.50;99.90;;;;;;4977298;28;20852;-68
2023/07/02 07:32:41;;;;;;;18.77;13.80;;;21.30;99.90;;;;;;4973297;28;20678;-68
2023/07/02 07:35:07;;;;;;;19.07;13.73;;;21.50;99.90;;;;;;4973361;28;20459;-67
2023/07/02 07:37:32;;;;;;;18.07;14.00;;;21.60;99.90;;;;;;4969908;28;20447;-68
2023/07/02 07:39:58;;;;;;;19.13;12.23;;;21.70;99.90;;;;;;4973647;28;20444;-68
2023/07/02 07:42:23;;;;;;;19.93;13.47;;;21.70;99.90;;;;;;4979419;28;20180;-67
2023/07/02 07:44:49;;;;;;;20.83;14.47;;;21.90;99.90;;;;;;4985359;28;20203;-68
2023/07/02 07:47:14;;;;;;;19.20;14.07;;;22.10;99.90;;;;;;4980039;28;20173;-68
2023/07/02 07:49:40;;;;;;;16.17;13.37;;;22.40;99.90;;;;;;4978065;28;20330;-68
2023/07/02 07:52:06;;;;;;;17.10;14.37;;;22.80;99.90;;;;;;4981526;28;20180;-68
2023/07/02 07:54:32;;;;;;;16.53;12.50;;;22.90;99.90;;;;;;4977911;28;20334;-70
2023/07/02 07:56:58;;;;;;;17.00;15.20;;;23.20;99.90;;;;;;4969190;28;20773;-67
2023/07/02 07:59:24;;;;;;;16.47;14.73;;;23.00;99.90;;;;;;4976217;28;20438;-67
2023/07/02 08:01:49;;;;;;;16.77;14.57;;;23.20;99.90;;;;;;4971160;28;20685;-67
2023/07/02 08:04:15;;;;;;;19.30;14.30;;;23.70;99.90;;;;;;5010598;23;20752;-68
2023/07/02 08:06:40;;;;;;;17.03;13.70;;;23.80;99.90;;;;;;4992353;28;20222;-68
2023/07/02 08:09:06;;;;;;;21.30;14.93;;;23.90;99.90;;;;;;4992107;28;20275;-67
2023/07/02 08:11:31;;;;;;;17.40;14.63;;;23.70;99.90;;;;;;4992990;28;20786;-69
2023/07/02 08:13:57;;;;;;;19.00;14.00;;;23.40;99.90;;;;;;4996203;28;20663;-66
2023/07/02 08:16:23;;;;;;;15.87;13.40;;;23.40;99.90;;;;;;4992080;28;20171;-66
2023/07/02 08:18:48;;;;;;;20.73;15.00;;;23.80;99.90;;;;;;5000510;28;20446;-65
2023/07/02 08:21:14;;;;;;;19.73;13.67;;;24.10;99.90;;;;;;4990797;28;20234;-66
2023/07/02 08:23:41;;;;;;;16.77;14.63;;;24.30;99.90;;;;;;4988949;28;20217;-66
2023/07/02 08:26:07;;;;;;;19.73;15.80;;;24.30;99.60;;;;;;4990423;28;20661;-66
2023/07/02 08:28:32;;;;;;;17.57;13.47;;;24.20;99.90;;;;;;4984289;28;20451;-66
2023/07/02 08:30:59;;;;;;;14.73;13.20;;;24.50;99.20;;;;;;4993268;28;20200;-68
2023/07/02 08:33:24;;;;;;;17.57;14.57;;;24.30;98.80;;;;;;4992496;28;20195;-67
2023/07/02 08:35:50;;;;;;;20.00;15.23;;;24.30;99.10;;;;;;4991666;28;20434;-66
2023/07/02 08:38:15;;;;;;;20.20;15.20;;;24.20;97.70;;;;;;4999930;28;20703;-66
2023/07/02 08:40:41;;;;;;;18.53;14.80;;;24.20;98.40;;;;;;4992000;28;20270;-66
2023/07/02 08:43:07;;;;;;;16.37;14.27;;;24.40;97.40;;;;;;4992648;28;20555;-66
2023/07/02 08:45:33;;;;;;;18.37;15.50;;;24.60;96.00;;;;;;4986050;28;20594;-65
2023/07/02 08:47:58;;;;;;;18.53;15.27;;;24.80;95.40;;;;;;4991516;28;20635;-66
2023/07/02 08:50:24;;;;;;;17.13;14.27;;;24.70;95.50;;;;;;5011146;28;20505;-67
2023/07/02 08:52:49;;;;;;;18.43;14.70;;;25.00;96.10;;;;;;5004772;28;20199;-68
2023/07/02 08:55:15;;;;;;;18.10;14.90;;;25.20;95.00;;;;;;4990799;28;20207;-70
2023/07/02 08:57:49;;;;;;;19.27;14.40;;;25.20;94.30;;;;;;4989371;28;20167;-70
2023/07/02 09:00:15;;;;;;;17.90;13.67;;;25.30;93.60;;;;;;4993037;28;20184;-66
2023/07/02 09:02:40;;;;;;;16.40;14.17;;;25.50;94.00;;;;;;5005799;28;20495;-66
2023/07/02 09:05:06;;;;;;;14.80;13.30;;;25.80;92.10;;;;;;4988024;28;20474;-70
2023/07/02 09:07:42;;;;;;;14.77;12.97;;;25.80;90.10;;;;;;4992602;28;20179;-67
2023/07/02 09:10:08;;;;;;;13.57;12.17;;;25.80;88.60;;;;;;5000044;28;20184;-74
2023/07/02 09:12:35;;;;;;;14.67;13.17;;;25.80;88.40;;;;;;4985077;28;20516;-70
2023/07/02 09:15:01;;;;;;;15.23;13.20;;;25.80;88.80;;;;;;4988869;28;20195;-68
2023/07/02 09:17:34;;;;;;;13.93;11.50;;;25.60;87.10;;;;;;5001625;28;20536;-67
2023/07/02 09:20:04;;;;;;;15.20;13.00;;;25.60;84.70;;;;;;4978382;28;20462;-66
2023/07/02 09:22:30;;;;;;;14.63;12.00;;;25.00;86.40;;;;;;4989694;28;20449;-67
2023/07/02 09:24:59;;;;;;;15.33;13.67;;;24.50;88.70;;;;;;4990243;28;20454;-67
2023/07/02 09:27:38;;;;;;;12.77;11.40;;;24.70;90.80;;;;;;4988136;28;20254;-68
2023/07/02 09:30:13;;;;;;;14.77;12.20;;;25.10;89.50;;;;;;4988918;28;20457;-67
2023/07/02 09:32:39;;;;;;;18.40;12.97;;;25.80;88.10;;;;;;4990701;28;20430;-67
2023/07/02 09:35:05;;;;;;;14.57;13.07;;;26.10;85.90;;;;;;5004576;28;20973;-67
2023/07/02 09:37:31;;;;;;;15.70;12.77;;;26.40;84.20;;;;;;4999336;28;20427;-66
2023/07/02 09:39:57;;;;;;;15.67;13.57;;;26.70;80.40;;;;;;4991365;28;20179;-67
2023/07/02 09:42:25;;;;;;;15.13;13.43;;;26.20;82.10;;;;;;4991513;28;20442;-66
2023/07/02 09:44:58;;;;;;;13.27;11.97;;;26.50;81.90;;;;;;4989520;28;20462;-68
2023/07/02 09:47:25;;;;;;;17.17;13.70;;;26.20;81.60;;;;;;4987569;28;20461;-67
2023/07/02 09:50:02;;;;;;;13.67;12.20;;;26.10;81.50;;;;;;4987405;28;20463;-67
2023/07/02 09:52:27;;;;;;;16.33;12.60;;;26.80;81.40;;;;;;4990489;28;20493;-69
2023/07/02 09:54:53;;;;;;;15.63;12.77;;;26.70;79.60;;;;;;4990718;28;20454;-65
2023/07/02 09:57:19;;;;;;;19.00;14.20;;;27.00;80.20;;;;;;4990730;28;20186;-68
2023/07/02 09:59:45;;;;;;;17.27;14.50;;;27.80;79.10;;;;;;4998188;28;20210;-68
2023/07/02 10:02:13;;;;;;;18.40;14.97;;;27.90;77.40;;;;;;4989569;28;20195;-67
2023/07/02 10:04:54;;;;;;;18.80;16.80;;;27.80;75.50;;;;;;4990276;28;20658;-69
2023/07/02 10:07:28;;;;;;;17.00;15.27;;;27.90;76.70;;;;;;4993090;28;20437;-67
2023/07/02 10:09:53;;;;;;;18.70;16.37;;;28.40;76.20;;;;;;4987135;28;20557;-68
2023/07/02 10:12:27;;;;;;;19.07;17.03;;;28.40;71.70;;;;;;5003887;28;20604;-69
2023/07/02 10:14:54;;;;;;;18.90;16.90;;;28.30;71.90;;;;;;4988983;28;20198;-66
2023/07/02 10:17:30;;;;;;;16.80;15.10;;;27.60;70.40;;;;;;4994609;28;20438;-70
2023/07/02 10:19:58;;;;;;;19.50;17.43;;;27.30;73.40;;;;;;4988273;28;20934;-68
2023/07/02 10:22:24;;;;;;;18.13;16.23;;;27.50;74.00;;;;;;4996600;28;20982;-67
2023/07/02 10:24:59;;;;;;;18.80;16.83;;;27.80;71.40;;;;;;5001330;28;20536;-66
2023/07/02 10:27:39;;;;;;;17.20;15.40;;;27.30;69.40;;;;;;4992108;28;20174;-70
2023/07/02 10:30:06;;;;;;;20.83;16.57;;;26.70;71.20;;;;;;4990694;28;20435;-69
2023/07/02 10:32:34;;;;;;;18.80;16.63;;;26.10;73.50;;;;;;4992907;28;20427;-67
2023/07/02 10:35:02;;;;;;;17.70;16.00;;;26.60;73.50;;;;;;4993253;28;20442;-68
2023/07/02 10:37:35;;;;;;;17.60;15.70;;;27.60;71.70;;;;;;5004713;28;20490;-69
2023/07/02 10:40:05;;;;;;;17.70;15.83;;;28.00;67.80;;;;;;5013572;28;20426;-66
2023/07/02 10:42:30;;;;;;;17.90;15.90;;;27.40;68.70;;;;;;4992627;28;20480;-67
2023/07/02 10:44:56;;;;;;;18.50;15.57;;;27.60;69.80;;;;;;4993222;28;20537;-66
2023/07/02 10:47:21;;;;;;;16.73;14.77;;;28.20;67.70;;;;;;4992547;28;20262;-66
2023/07/02 10:49:47;;;;;;;17.33;15.50;;;28.00;65.70;;;;;;4991620;28;20203;-66
2023/07/02 10:52:12;;;;;;;19.50;15.50;;;27.60;67.20;;;;;;5002279;28;20179;-66
2023/07/02 10:54:39;;;;;;;16.43;14.03;;;26.90;68.70;;;;;;5005083;28;20199;-67
2023/07/02 10:57:05;;;;;;;16.30;14.63;;;26.70;69.40;;;;;;4992655;28;20176;-67
2023/07/02 10:59:31;;;;;;;17.60;15.80;;;26.90;68.70;;;;;;4992863;28;20435;-67
2023/07/02 11:02:01;;;;;;;17.73;15.87;;;27.60;67.60;;;;;;4992982;28;20175;-66
2023/07/02 11:04:27;;;;;;;18.60;16.73;;;29.10;67.10;;;;;;4984241;28;20268;-66
2023/07/02 11:06:52;;;;;;;17.03;15.27;;;30.10;60.60;;;;;;4996805;28;20445;-68
2023/07/02 11:09:22;;;;;;;17.30;15.47;;;31.70;58.60;;;;;;4999891;28;20211;-67
2023/07/02 11:11:55;;;;;;;18.93;14.97;;;32.20;56.70;;;;;;4991045;28;20689;-68
2023/07/02 11:14:29;;;;;;;18.00;16.20;;;32.70;54.10;;;;;;4991140;28;20457;-68
2023/07/02 11:16:55;;;;;;;17.90;16.10;;;32.10;52.50;;;;;;4990974;28;20987;-67
2023/07/02 11:19:21;;;;;;;17.50;15.63;;;30.50;53.10;;;;;;5003311;28;20434;-67
2023/07/02 11:21:58;;;;;;;17.20;15.40;;;30.40;53.40;;;;;;4998391;28;20431;-68
2023/07/02 11:24:29;;;;;;;17.83;16.03;;;31.40;53.10;;;;;;4993023;28;20203;-67
2023/07/02 11:26:54;;;;;;;19.10;17.13;;;31.80;51.20;;;;;;4993933;28;20431;-67
2023/07/02 11:29:20;;;;;;;17.00;15.40;;;31.80;50.70;;;;;;4993238;28;21019;-67
2023/07/02 11:31:45;;;;;;;17.33;15.63;;;31.60;51.10;;;;;;5006213;28;20170;-67
2023/07/02 11:34:12;;;;;;;17.23;15.70;;;32.00;50.10;;;;;;4992776;28;20210;-67
2023/07/02 11:36:38;;;;;;;18.50;16.50;;;30.30;52.20;;;;;;4993117;28;20229;-66
2023/07/02 11:39:05;;;;;;;18.07;16.17;;;30.30;53.10;;;;;;4993328;28;20862;-67
2023/07/02 11:41:41;;;;;;;15.77;14.00;;;30.40;52.10;;;;;;4996177;28;20195;-67
2023/07/02 11:44:07;;;;;;;16.70;15.07;;;31.10;50.90;;;;;;5003927;28;20465;-67
2023/07/02 11:46:33;;;;;;;17.50;15.90;;;32.90;49.30;;;;;;4992832;28;20812;-67
2023/07/02 11:49:08;;;;;;;17.67;15.97;;;33.10;48.50;;;;;;4993029;28;20520;-67
2023/07/02 11:51:37;;;;;;;17.40;15.90;;;33.60;48.10;;;;;;4986353;28;20534;-67
2023/07/02 11:54:04;;;;;;;16.47;14.77;;;32.30;48.40;;;;;;4991961;28;20955;-67
2023/07/02 11:56:30;;;;;;;17.10;14.03;;;31.60;47.70;;;;;;5003589;28;20556;-70
2023/07/02 11:58:56;;;;;;;17.57;15.77;;;30.60;48.40;;;;;;5001110;28;20803;-67
2023/07/02 12:01:21;;;;;;;16.97;15.23;;;30.30;49.40;;;;;;4993477;28;20437;-68
2023/07/02 12:03:47;;;;;;;18.37;16.47;;;30.70;48.60;;;;;;4991506;28;20212;-67
2023/07/02 12:06:12;;;;;;;18.03;16.20;;;30.80;49.20;;;;;;4993170;28;20183;-67
2023/07/02 12:08:38;;;;;;;20.97;15.80;;;32.80;48.40;;;;;;4991919;28;20566;-71
2023/07/02 12:11:03;;;;;;;17.47;15.77;;;34.40;45.70;;;;;;4999598;28;20188;-67
2023/07/02 12:13:29;;;;;;;17.43;15.60;;;34.60;45.30;;;;;;5007088;28;20183;-69
2023/07/02 12:15:54;;;;;;;16.43;14.83;;;35.70;43.50;;;;;;4991459;28;20199;-67
2023/07/02 12:18:20;;;;;;;16.07;14.67;;;36.00;41.60;;;;;;4992873;28;20184;-66
2023/07/02 12:20:46;;;;;;;17.30;15.70;;;34.90;41.70;;;;;;4992408;28;20183;-67
2023/07/02 12:23:11;;;;;;;17.13;15.63;;;33.50;42.30;;;;;;4992881;28;20184;-67
2023/07/02 12:25:37;;;;;;;17.40;15.80;;;34.40;42.80;;;;;;4995165;28;20194;-66
2023/07/02 12:28:06;;;;;;;16.07;14.50;;;34.60;40.50;;;;;;5008727;28;20760;-67
2023/07/02 12:30:32;;;;;;;18.43;16.50;;;33.70;40.70;;;;;;4991835;28;20521;-68
2023/07/02 12:32:58;;;;;;;17.33;15.53;;;32.50;41.20;;;;;;4990795;28;20427;-70
2023/07/02 12:35:24;;;;;;;16.40;14.80;;;33.20;42.30;;;;;;4990264;28;20470;-67